Bregenz, Austria
Current Conditions -  °F | °C
As of 4:50 AM on Saturday 20 Dec 2014 (Local Time) from LSZR Reporting Station
Rain Showers Rain Showers  
Wind Chill: 46°   Ceiling: Unl
Heat Index: 46°   Visibility: 6mi
Dew Point: 46°   Wind: 3mph
Humidity: 100%   Direction: NA
Pressure: 30.27"   Gusts: NA
Location:  47.51°N, 9.73°E
Report Text: LSZR 200250Z AUTO VRB03KT 9999 -SHRA SCT023 SCT035 08/08 Q1025
Loading
Personal Weather Stations






























Interactive Weather Map New forecast layout! Learn more

10-Day Weather Forecast

Advertisements
Track Severe Weather on mobile